Springfield, Missouri
Current Conditions -  °F | °C
As of 6:52 AM on Tuesday 21 Oct 2014 (Local Time) from KSGF Reporting Station
Haze Haze  
Wind Chill: 47°   Ceiling: Unl
Heat Index: 47°   Visibility: 6mi
Dew Point: 45°   Wind: 3mph
Humidity: 93%   Direction: 160°SSE
Pressure: 30.11"   Gusts: NA
Location:  37.21°N, 93.29°W
Report Text: KSGF 211152Z 16003KT 6SM BR CLR 08/07 A3011 RMK AO2 SLP193 T00830072 10111 20072 53008
Loading
Personal Weather Stations






























Interactive Weather Map
Tropical Storm Tracking
New forecast layout! Learn more

10-Day Weather Forecast

Advertisements
Track Severe Weather on mobile